createdAt,value
2019-04-19T00:01:34.232Z,9.89
2019-04-19T00:04:06.939Z,9.89
2019-04-19T00:06:36.462Z,9.86
2019-04-19T00:09:16.266Z,9.81
2019-04-19T00:11:38.292Z,9.76
2019-04-19T00:14:02.018Z,9.70
2019-04-19T00:16:29.988Z,9.64
2019-04-19T00:19:21.258Z,9.58
2019-04-19T00:21:49.362Z,9.54
2019-04-19T00:23:58.308Z,9.46
2019-04-19T00:26:27.452Z,9.39
2019-04-19T00:29:01.006Z,9.30
2019-04-19T00:31:33.833Z,9.26
2019-04-19T00:33:58.021Z,9.20
2019-04-19T00:36:25.467Z,9.15
2019-04-19T00:39:15.383Z,9.08
2019-04-19T00:41:54.554Z,9.02
2019-04-19T00:44:35.325Z,8.95
2019-04-19T00:47:02.820Z,8.91
2019-04-19T00:49:21.282Z,8.84
2019-04-19T00:51:56.491Z,8.77
2019-04-19T00:54:17.860Z,8.74
2019-04-19T00:56:46.656Z,8.69
2019-04-19T00:59:10.169Z,8.63
2019-04-19T01:01:37.420Z,8.60
2019-04-19T01:04:11.759Z,8.57
2019-04-19T01:06:44.003Z,8.54
2019-04-19T01:09:22.727Z,8.47
2019-04-19T01:11:51.686Z,8.45
2019-04-19T01:14:18.360Z,8.40
2019-04-19T01:16:51.560Z,8.35
2019-04-19T01:19:08.034Z,8.33
2019-04-19T01:21:34.330Z,6.77
2019-04-19T01:24:04.887Z,8.28
2019-04-19T01:26:39.969Z,8.28
2019-04-19T01:29:06.234Z,8.25
2019-04-19T01:31:32.508Z,8.21
2019-04-19T01:34:03.872Z,8.16
2019-04-19T01:36:34.917Z,8.10
2019-04-19T01:39:17.945Z,8.06
2019-04-19T01:41:41.799Z,8.01
2019-04-19T01:44:23.874Z,7.96
2019-04-19T01:46:59.436Z,7.93
2019-04-19T01:49:46.244Z,7.90
2019-04-19T01:52:13.074Z,7.85
2019-04-19T01:54:42.231Z,7.80
2019-04-19T01:56:58.208Z,7.09
2019-04-19T01:59:31.505Z,7.75
2019-04-19T02:01:59.470Z,7.73
2019-04-19T02:04:26.684Z,7.70
2019-04-19T02:06:53.049Z,7.65
2019-04-19T02:09:32.706Z,7.62
2019-04-19T02:12:17.350Z,7.58
2019-04-19T02:14:39.499Z,7.57
2019-04-19T02:17:04.248Z,7.51
2019-04-19T02:19:29.748Z,7.53
2019-04-19T02:22:00.127Z,7.51
2019-04-19T02:24:34.677Z,7.50
2019-04-19T02:27:02.520Z,7.45
2019-04-19T02:29:29.659Z,7.45
2019-04-19T02:37:33.381Z,7.31
2019-04-19T02:39:55.833Z,7.28
2019-04-19T02:47:34.679Z,7.22
2019-04-19T02:49:51.616Z,7.22
2019-04-19T02:52:29.421Z,7.19
2019-04-19T02:57:32.814Z,7.17
2019-04-19T03:00:12.983Z,7.15
2019-04-19T03:05:13.105Z,7.08
2019-04-19T03:07:17.689Z,7.04
2019-04-19T03:09:46.892Z,7.02
2019-04-19T03:12:35.133Z,7.01
2019-04-19T03:15:03.134Z,6.98
2019-04-19T03:17:33.629Z,6.94
2019-04-19T03:20:04.082Z,6.93
2019-04-19T03:22:29.463Z,6.89
2019-04-19T03:25:03.498Z,6.86
2019-04-19T03:27:20.291Z,6.54
2019-04-19T03:29:45.260Z,6.80
2019-04-19T03:35:01.160Z,6.73
2019-04-19T03:37:44.985Z,6.72
2019-04-19T03:40:08.553Z,6.70
2019-04-19T03:45:22.007Z,6.65
2019-04-19T03:47:44.579Z,6.62
2019-04-19T03:50:10.553Z,6.57
2019-04-19T03:52:36.911Z,6.56
2019-04-19T03:55:09.105Z,6.51
2019-04-19T03:57:31.252Z,6.47
2019-04-19T03:59:48.618Z,6.45
2019-04-19T04:02:24.482Z,6.40
2019-04-19T04:04:57.237Z,6.38
2019-04-19T04:07:20.810Z,6.34
2019-04-19T04:09:51.754Z,6.34
2019-04-19T04:12:32.271Z,6.27
2019-04-19T04:15:07.270Z,6.26
2019-04-19T04:17:26.870Z,6.23
2019-04-19T04:19:55.184Z,4.98
2019-04-19T04:22:29.710Z,6.18
2019-04-19T04:25:01.838Z,6.14
2019-04-19T04:27:36.523Z,6.13
2019-04-19T04:30:04.660Z,6.12
2019-04-19T04:32:40.550Z,6.08
2019-04-19T04:35:08.827Z,6.08
2019-04-19T04:37:39.749Z,6.05
2019-04-19T04:39:51.340Z,6.04
2019-04-19T04:42:26.591Z,6.03
2019-04-19T04:45:15.317Z,6.03
2019-04-19T04:47:37.092Z,6.04
2019-04-19T04:50:11.251Z,6.01
2019-04-19T04:52:35.651Z,6.00
2019-04-19T04:55:09.261Z,6.00
2019-04-19T04:57:45.873Z,6.00
2019-04-19T05:00:08.039Z,6.00
2019-04-19T05:02:53.705Z,6.00
2019-04-19T05:05:25.876Z,6.03
2019-04-19T05:08:00.227Z,6.04
2019-04-19T05:10:24.913Z,6.07
2019-04-19T05:13:12.378Z,6.10
2019-04-19T05:15:26.391Z,6.14
2019-04-19T05:18:03.252Z,6.18
2019-04-19T05:20:27.878Z,6.21
2019-04-19T05:22:58.923Z,6.25
2019-04-19T05:25:33.410Z,6.30
2019-04-19T05:27:55.543Z,6.33
2019-04-19T05:30:07.107Z,6.36
2019-04-19T05:32:37.438Z,6.41
2019-04-19T05:35:19.430Z,6.47
2019-04-19T05:37:58.382Z,6.53
2019-04-19T05:40:32.055Z,6.58
2019-04-19T05:42:59.157Z,6.64
2019-04-19T05:45:40.521Z,6.72
2019-04-19T05:47:53.694Z,6.78
2019-04-19T05:50:31.891Z,6.85
2019-04-19T05:52:55.081Z,6.91
2019-04-19T05:55:11.602Z,6.98
2019-04-19T05:57:53.728Z,7.04
2019-04-19T06:00:21.691Z,7.12
2019-04-19T06:02:53.576Z,7.21
2019-04-19T06:05:37.659Z,7.31
2019-04-19T06:07:49.064Z,7.41
2019-04-19T06:10:10.628Z,7.50
2019-04-19T06:12:38.916Z,7.57
2019-04-19T06:15:25.812Z,7.65
2019-04-19T06:17:58.788Z,7.74
2019-04-19T06:20:26.463Z,7.83
2019-04-19T06:22:58.012Z,7.94
2019-04-19T06:25:35.582Z,8.06
2019-04-19T06:28:21.064Z,8.17
2019-04-19T06:30:35.010Z,8.25
2019-04-19T06:32:57.739Z,8.33
2019-04-19T06:35:22.575Z,6.91
2019-04-19T06:37:37.646Z,8.48
2019-04-19T06:40:14.618Z,8.55
2019-04-19T06:42:46.452Z,8.63
2019-04-19T06:45:22.685Z,8.73
2019-04-19T06:47:45.049Z,8.85
2019-04-19T06:50:07.405Z,8.99
2019-04-19T06:52:37.926Z,9.11
2019-04-19T06:55:14.182Z,9.22
2019-04-19T06:57:46.695Z,9.31
2019-04-19T07:00:20.561Z,9.42
2019-04-19T07:02:37.112Z,9.52
2019-04-19T07:05:20.388Z,9.64
2019-04-19T07:08:07.220Z,9.76
2019-04-19T07:10:39.586Z,7.15
2019-04-19T07:12:55.324Z,10.23
2019-04-19T07:15:36.749Z,10.58
2019-04-19T07:17:50.744Z,10.92
2019-04-19T07:20:23.038Z,11.35
2019-04-19T07:22:52.098Z,11.75
2019-04-19T07:25:30.460Z,12.14
2019-04-19T07:27:48.954Z,12.49
2019-04-19T07:30:07.278Z,12.80
2019-04-19T07:32:43.880Z,13.07
2019-04-19T07:35:22.377Z,13.23
2019-04-19T07:37:52.689Z,13.42
2019-04-19T07:40:23.596Z,13.76
2019-04-19T07:42:51.059Z,14.01
2019-04-19T07:45:08.787Z,14.18
2019-04-19T07:47:43.855Z,14.46
2019-04-19T07:50:16.288Z,14.75
2019-04-19T07:52:42.479Z,15.09
2019-04-19T07:55:08.229Z,15.32
2019-04-19T07:58:06.362Z,15.52
2019-04-19T08:00:44.997Z,15.64
2019-04-19T08:12:55.098Z,16.42
2019-04-19T08:15:22.434Z,16.48
2019-04-19T08:27:31.009Z,17.32
2019-04-19T08:29:58.273Z,17.48
2019-04-19T08:32:21.555Z,17.60
2019-04-19T08:34:55.766Z,17.60
2019-04-19T08:37:25.368Z,17.73
2019-04-19T08:40:08.632Z,17.99
2019-04-19T08:42:34.356Z,18.18
2019-04-19T08:44:55.830Z,18.49
2019-04-19T08:47:28.698Z,18.60
2019-04-19T08:49:52.923Z,18.63
2019-04-19T08:52:27.226Z,18.86
2019-04-19T08:55:09.404Z,19.08
2019-04-19T08:57:22.638Z,19.03
2019-04-19T09:00:12.383Z,19.23
2019-04-19T09:02:34.424Z,19.56
2019-04-19T09:05:04.924Z,19.93
2019-04-19T09:10:18.493Z,20.02
2019-04-19T09:12:26.938Z,20.28
2019-04-19T09:15:02.162Z,20.58
2019-04-19T09:17:39.027Z,20.87
2019-04-19T09:20:11.370Z,21.07
2019-04-19T09:22:34.328Z,21.20
2019-04-19T09:24:50.261Z,21.39
2019-04-19T09:27:34.758Z,21.59
2019-04-19T09:29:58.506Z,21.76
2019-04-19T09:32:13.957Z,22.05
2019-04-19T09:34:43.929Z,22.24
2019-04-19T09:37:13.341Z,22.36
2019-04-19T09:39:47.524Z,22.49
2019-04-19T09:42:13.843Z,22.67
2019-04-19T09:44:40.177Z,22.83
2019-04-19T09:47:03.975Z,22.99
2019-04-19T09:49:46.245Z,23.22
2019-04-19T09:52:23.930Z,23.30
2019-04-19T09:54:55.586Z,23.27
2019-04-19T09:57:13.250Z,23.31
2019-04-19T09:59:31.048Z,22.33
2019-04-19T10:01:58.906Z,23.40
2019-04-19T10:04:23.082Z,22.40
2019-04-19T10:06:51.127Z,23.46
2019-04-19T10:09:22.071Z,23.57
2019-04-19T10:11:47.102Z,23.74
2019-04-19T10:14:15.107Z,23.96
2019-04-19T10:16:44.433Z,23.91
2019-04-19T10:19:12.790Z,24.06
2019-04-19T10:21:49.328Z,24.31
2019-04-19T10:24:19.663Z,24.56
2019-04-19T10:26:48.387Z,24.71
2019-04-19T10:29:24.601Z,24.61
2019-04-19T10:31:46.808Z,24.66
2019-04-19T10:34:16.431Z,23.73
2019-04-19T10:36:46.180Z,24.72
2019-04-19T10:39:16.854Z,24.84
2019-04-19T10:41:44.037Z,25.07
2019-04-19T10:44:15.465Z,24.90
2019-04-19T10:46:40.655Z,25.01
2019-04-19T10:49:14.846Z,24.84
2019-04-19T10:51:47.271Z,24.89
2019-04-19T10:54:14.908Z,25.00
2019-04-19T10:56:56.816Z,25.12
2019-04-19T10:59:24.686Z,25.23
2019-04-19T11:01:52.329Z,25.34
2019-04-19T11:04:20.615Z,25.36
2019-04-19T11:06:47.866Z,25.44
2019-04-19T11:09:14.853Z,25.39
2019-04-19T11:11:41.695Z,25.50
2019-04-19T11:14:10.120Z,25.68
2019-04-19T11:16:37.598Z,25.68
2019-04-19T11:19:14.206Z,25.61
2019-04-19T11:21:33.911Z,25.54
2019-04-19T11:24:01.883Z,25.64
2019-04-19T11:26:28.885Z,25.70
2019-04-19T11:28:56.792Z,25.67
2019-04-19T11:31:41.681Z,25.53
2019-04-19T11:34:09.029Z,25.59
2019-04-19T11:36:35.977Z,25.36
2019-04-19T11:39:05.233Z,25.46
2019-04-19T11:41:33.336Z,25.51
2019-04-19T11:44:06.203Z,25.57
2019-04-19T11:46:30.262Z,25.41
2019-04-19T11:48:57.661Z,24.37
2019-04-19T11:51:25.687Z,25.39
2019-04-19T11:53:52.539Z,25.29
2019-04-19T11:56:22.614Z,25.25
2019-04-19T11:58:52.823Z,25.33
2019-04-19T12:01:21.778Z,24.42
2019-04-19T12:03:50.030Z,25.63
2019-04-19T12:06:18.387Z,25.58
2019-04-19T12:08:46.423Z,25.69
2019-04-19T12:11:15.975Z,25.79
2019-04-19T12:13:43.741Z,25.97
2019-04-19T12:16:10.916Z,25.98
2019-04-19T12:18:40.015Z,25.95
2019-04-19T12:21:07.276Z,25.93
2019-04-19T12:23:34.772Z,25.81
2019-04-19T12:26:01.875Z,25.67
2019-04-19T12:28:29.977Z,25.63
2019-04-19T12:30:58.634Z,25.63
2019-04-19T12:33:25.507Z,25.69
2019-04-19T12:35:53.073Z,24.86
2019-04-19T12:38:19.963Z,25.87
2019-04-19T12:40:49.913Z,25.92
2019-04-19T12:43:17.941Z,25.91
2019-04-19T12:45:50.186Z,25.96
2019-04-19T12:48:14.721Z,24.94
2019-04-19T12:50:42.113Z,26.07
2019-04-19T12:53:09.547Z,26.09
2019-04-19T12:55:37.827Z,26.07
2019-04-19T12:58:05.967Z,26.16
2019-04-19T13:00:45.882Z,26.29
2019-04-19T13:03:18.017Z,26.45
2019-04-19T13:05:46.765Z,26.56
2019-04-19T13:08:14.941Z,26.53
2019-04-19T13:10:42.968Z,26.53
2019-04-19T13:13:09.964Z,26.47
2019-04-19T13:15:36.912Z,25.78
2019-04-19T13:18:04.377Z,26.33
2019-04-19T13:20:35.358Z,26.21
2019-04-19T13:23:02.098Z,26.14
2019-04-19T13:25:29.336Z,26.01
2019-04-19T13:27:59.620Z,24.94
2019-04-19T13:30:35.919Z,25.90
2019-04-19T13:32:54.907Z,25.77
2019-04-19T13:35:23.427Z,25.74
2019-04-19T13:37:55.068Z,25.59
2019-04-19T13:40:30.348Z,25.40
2019-04-19T13:43:00.055Z,25.08
2019-04-19T13:45:31.324Z,24.75
2019-04-19T13:47:56.593Z,24.56
2019-04-19T13:50:30.314Z,24.35
2019-04-19T13:52:52.960Z,24.13
2019-04-19T13:55:20.984Z,24.05
2019-04-19T13:57:47.867Z,24.04
2019-04-19T14:00:22.696Z,23.93
2019-04-19T14:02:49.577Z,23.90
2019-04-19T14:05:17.808Z,23.85
2019-04-19T14:07:45.329Z,23.76
2019-04-19T14:10:14.998Z,23.74
2019-04-19T14:12:45.272Z,23.61
2019-04-19T14:15:15.228Z,23.55
2019-04-19T14:17:45.487Z,23.54
2019-04-19T14:20:20.295Z,23.48
2019-04-19T14:22:41.753Z,23.46
2019-04-19T14:25:09.551Z,23.47
2019-04-19T14:27:37.488Z,23.43
2019-04-19T14:30:06.502Z,23.39
2019-04-19T14:32:33.760Z,22.28
2019-04-19T14:35:01.987Z,23.22
2019-04-19T14:37:29.882Z,23.22
2019-04-19T14:39:58.492Z,23.20
2019-04-19T14:42:28.398Z,23.14
2019-04-19T14:44:58.317Z,23.07
2019-04-19T14:47:28.636Z,23.01
2019-04-19T14:49:58.911Z,22.90
2019-04-19T14:52:30.135Z,22.82
2019-04-19T14:54:57.631Z,22.83
2019-04-19T14:57:24.978Z,22.86
2019-04-19T14:59:56.855Z,22.84
2019-04-19T15:02:45.743Z,22.78
2019-04-19T15:05:17.482Z,22.73
2019-04-19T15:07:44.790Z,22.71
2019-04-19T15:10:13.534Z,22.70
2019-04-19T15:12:41.183Z,22.64
2019-04-19T15:15:08.666Z,22.64
2019-04-19T15:17:35.950Z,22.56
2019-04-19T15:20:05.837Z,22.54
2019-04-19T15:22:35.770Z,22.49
2019-04-19T15:25:06.587Z,22.42
2019-04-19T15:27:37.088Z,22.40
2019-04-19T15:30:07.846Z,22.41
2019-04-19T15:32:36.263Z,22.38
2019-04-19T15:35:05.700Z,22.31
2019-04-19T15:37:33.925Z,22.27
2019-04-19T15:40:02.352Z,22.20
2019-04-19T15:42:32.460Z,22.17
2019-04-19T15:45:00.694Z,22.12
2019-04-19T15:47:28.670Z,22.09
2019-04-19T15:50:00.023Z,22.06
2019-04-19T15:52:28.223Z,22.02
2019-04-19T15:54:56.440Z,22.01
2019-04-19T15:57:28.126Z,22.01
2019-04-19T16:00:02.309Z,21.98
2019-04-19T16:02:30.283Z,21.96
2019-04-19T16:05:14.215Z,21.90
2019-04-19T16:07:55.843Z,21.87
2019-04-19T16:10:40.272Z,21.81
2019-04-19T16:13:08.139Z,21.81
2019-04-19T16:15:36.061Z,21.80
2019-04-19T16:18:04.086Z,21.76
2019-04-19T16:20:33.629Z,21.73
2019-04-19T16:23:04.162Z,21.71
2019-04-19T16:25:33.814Z,21.70
2019-04-19T16:28:01.334Z,21.69
2019-04-19T16:30:30.426Z,21.63
2019-04-19T16:32:59.698Z,21.61
2019-04-19T16:35:28.370Z,21.54
2019-04-19T16:37:55.883Z,21.52
2019-04-19T16:40:24.597Z,21.54
2019-04-19T16:42:59.463Z,21.54
2019-04-19T16:45:36.042Z,21.58
2019-04-19T16:48:12.949Z,20.48
2019-04-19T16:50:48.619Z,21.60
2019-04-19T16:53:22.187Z,21.56
2019-04-19T16:55:57.423Z,21.55
2019-04-19T16:58:32.987Z,20.49
2019-04-19T17:01:00.908Z,21.59
2019-04-19T17:03:28.144Z,21.55
2019-04-19T17:05:56.950Z,21.50
2019-04-19T17:08:27.290Z,21.50
2019-04-19T17:10:55.524Z,21.45
2019-04-19T17:13:22.772Z,21.46
2019-04-19T17:15:56.981Z,21.40
2019-04-19T17:18:38.949Z,21.36
2019-04-19T17:21:15.501Z,21.35
2019-04-19T17:23:42.740Z,21.32
2019-04-19T17:26:10.851Z,21.26
2019-04-19T17:28:39.014Z,21.19
2019-04-19T17:31:06.425Z,21.11
2019-04-19T17:33:33.462Z,20.99
2019-04-19T17:36:00.261Z,20.90
2019-04-19T17:38:38.361Z,20.73
2019-04-19T17:40:58.685Z,20.63
2019-04-19T17:43:27.938Z,20.46
2019-04-19T17:45:56.901Z,20.33
2019-04-19T17:48:26.331Z,20.19
2019-04-19T17:50:53.647Z,20.06
2019-04-19T17:53:25.230Z,19.94
2019-04-19T17:55:53.081Z,19.83
2019-04-19T17:58:19.235Z,19.72
2019-04-19T18:00:48.881Z,19.63
2019-04-19T18:03:17.283Z,18.30
2019-04-19T18:05:45.540Z,19.44
2019-04-19T18:08:20.357Z,19.36
2019-04-19T18:10:46.844Z,18.04
2019-04-19T18:13:10.858Z,19.15
2019-04-19T18:15:38.636Z,17.82
2019-04-19T18:18:08.322Z,18.94
2019-04-19T18:20:34.964Z,18.81
2019-04-19T18:23:08.674Z,18.72
2019-04-19T18:25:35.149Z,18.61
2019-04-19T18:28:06.154Z,18.52
2019-04-19T18:30:33.698Z,18.41
2019-04-19T18:33:04.349Z,18.29
2019-04-19T18:35:35.161Z,18.19
2019-04-19T18:38:01.010Z,18.09
2019-04-19T18:40:29.256Z,18.03
2019-04-19T18:43:12.472Z,17.92
2019-04-19T18:45:28.570Z,17.84
2019-04-19T18:47:54.837Z,17.79
2019-04-19T18:50:22.438Z,17.74
2019-04-19T18:52:58.797Z,17.66
2019-04-19T18:55:28.773Z,17.61
2019-04-19T18:57:49.424Z,17.56
2019-04-19T19:00:18.559Z,17.48
2019-04-19T19:02:51.646Z,17.40
2019-04-19T19:05:16.264Z,17.36
2019-04-19T19:07:43.581Z,17.31
2019-04-19T19:10:18.759Z,17.22
2019-04-19T19:12:45.146Z,17.13
2019-04-19T19:15:10.309Z,17.04
2019-04-19T19:17:38.185Z,16.97
2019-04-19T19:20:14.185Z,16.86
2019-04-19T19:22:55.949Z,16.79
2019-04-19T19:25:24.721Z,16.68
2019-04-19T19:27:37.854Z,16.56
2019-04-19T19:30:09.035Z,16.47
2019-04-19T19:32:35.938Z,16.37
2019-04-19T19:35:09.194Z,16.26
2019-04-19T19:37:36.386Z,16.18
2019-04-19T19:40:09.800Z,16.11
2019-04-19T19:42:51.812Z,16.02
2019-04-19T19:45:21.653Z,15.95
2019-04-19T19:48:13.233Z,15.87
2019-04-19T19:51:01.570Z,15.79
2019-04-19T19:53:07.578Z,15.70
2019-04-19T19:55:36.089Z,15.60
2019-04-19T19:57:58.548Z,15.53
2019-04-19T20:00:30.845Z,15.49
2019-04-19T20:03:01.639Z,15.41
2019-04-19T20:05:25.725Z,15.34
2019-04-19T20:07:51.746Z,15.26
2019-04-19T20:10:21.171Z,15.22
2019-04-19T20:12:55.628Z,15.18
2019-04-19T20:15:18.613Z,15.10
2019-04-19T20:17:51.002Z,15.05
2019-04-19T20:20:16.279Z,14.98
2019-04-19T20:22:45.889Z,14.92
2019-04-19T20:25:25.753Z,14.86
2019-04-19T20:27:46.670Z,14.77
2019-04-19T20:30:11.731Z,14.67
2019-04-19T20:32:38.883Z,13.27
2019-04-19T20:35:15.130Z,14.48
2019-04-19T20:37:35.452Z,14.38
2019-04-19T20:40:09.406Z,11.59
2019-04-19T20:43:00.000Z,14.23
2019-04-19T20:45:08.907Z,14.13
2019-04-19T20:47:33.122Z,14.05
2019-04-19T20:50:11.868Z,13.98
2019-04-19T20:52:45.439Z,13.90
2019-04-19T20:55:20.351Z,13.83
2019-04-19T20:57:51.362Z,13.75
2019-04-19T21:00:10.021Z,13.66
2019-04-19T21:02:40.272Z,13.59
2019-04-19T21:05:08.182Z,13.53
2019-04-19T21:07:38.561Z,13.47
2019-04-19T21:10:10.821Z,12.09
2019-04-19T21:12:36.660Z,13.32
2019-04-19T21:15:13.813Z,13.24
2019-04-19T21:17:42.395Z,13.16
2019-04-19T21:20:04.911Z,13.09
2019-04-19T21:22:36.510Z,13.05
2019-04-19T21:25:10.218Z,12.99
2019-04-19T21:27:32.300Z,12.93
2019-04-19T21:30:02.414Z,12.87
2019-04-19T21:32:30.920Z,12.78
2019-04-19T21:35:00.995Z,12.69
2019-04-19T21:37:31.777Z,12.60
2019-04-19T21:39:54.984Z,12.54
2019-04-19T21:42:24.413Z,12.49
2019-04-19T21:44:56.701Z,12.44
2019-04-19T21:47:20.057Z,12.36
2019-04-19T21:49:50.891Z,12.33
2019-04-19T21:52:20.908Z,12.29
2019-04-19T21:54:47.699Z,12.29
2019-04-19T21:57:18.683Z,12.30
2019-04-19T21:59:44.180Z,12.31
2019-04-19T22:02:17.697Z,12.29
2019-04-19T22:04:47.734Z,12.27
2019-04-19T22:07:12.978Z,12.22
2019-04-19T22:09:43.385Z,12.17
2019-04-19T22:12:10.239Z,12.12
2019-04-19T22:14:38.224Z,12.06
2019-04-19T22:17:10.992Z,12.00
2019-04-19T22:19:36.667Z,11.98
2019-04-19T22:22:04.371Z,11.97
2019-04-19T22:24:34.702Z,11.96
2019-04-19T22:27:00.923Z,11.95
2019-04-19T22:29:27.771Z,11.91
2019-04-19T22:31:56.540Z,11.87
2019-04-19T22:34:24.398Z,11.81
2019-04-19T22:36:53.436Z,11.78
2019-04-19T22:39:21.309Z,11.75
2019-04-19T22:41:48.729Z,11.74
2019-04-19T22:44:16.630Z,11.73
2019-04-19T22:46:49.438Z,11.68
2019-04-19T22:49:14.635Z,11.61
2019-04-19T22:51:41.040Z,11.51
2019-04-19T22:54:08.569Z,11.44
2019-04-19T22:56:48.162Z,11.39
2019-04-19T22:59:11.062Z,11.38
2019-04-19T23:01:57.328Z,11.37
2019-04-19T23:04:24.166Z,11.38
2019-04-19T23:06:54.573Z,11.36
2019-04-19T23:09:22.811Z,11.35
2019-04-19T23:11:48.589Z,11.34
2019-04-19T23:14:22.169Z,11.32
2019-04-19T23:16:50.505Z,11.31
2019-04-19T23:19:14.788Z,11.26
2019-04-19T23:21:48.415Z,11.21
2019-04-19T23:24:14.975Z,11.15
2019-04-19T23:27:00.753Z,11.12
2019-04-19T23:29:12.068Z,11.10
2019-04-19T23:31:44.195Z,9.70
2019-04-19T23:34:10.614Z,11.04
2019-04-19T23:36:39.486Z,11.00
2019-04-19T23:39:11.077Z,10.95
2019-04-19T23:41:37.219Z,10.91
2019-04-19T23:44:12.296Z,10.86
2019-04-19T23:46:37.074Z,10.82
2019-04-19T23:49:08.689Z,10.79
2019-04-19T23:51:33.485Z,10.73
2019-04-19T23:54:03.586Z,10.71
2019-04-19T23:56:38.361Z,9.34
2019-04-19T23:59:06.004Z,10.67
